Time;durP1;ratioP1;P1;durP2;ratioP2;P2;SDS_P1;SDS_P2;PMS_P1;PMS_P2;Temp;Humidity;BMP_temperature;BMP_pressure;BME280_temperature;BME280_humidity;BME280_pressure;Samples;Min_cycle;Max_cycle;Signal;HPM_P1;HPM_P2
2023/06/26 00:01:09;;;;;;;;;;;;;;;19.46;67.93;100767.58;107460;1251;109831;-67
2023/06/26 00:03:52;;;;;;;;;;;;;;;19.39;68.30;100762.66;107441;1255;108141;-65
2023/06/26 00:06:20;;;;;;;;;;;;;;;19.34;68.26;100761.23;107438;1256;97816;-67
2023/06/26 00:08:48;;;;;;;;;;;;;;;19.30;68.55;100762.45;107462;1256;98375;-66
2023/06/26 00:11:16;;;;;;;;;;;;;;;19.26;68.67;100763.59;107534;1254;111270;-66
2023/06/26 00:13:44;;;;;;;;;;;;;;;19.22;68.94;100761.86;107561;1254;109521;-66
2023/06/26 00:16:12;;;;;;;;;;;;;;;19.19;68.88;100759.06;107403;1255;107133;-68
2023/06/26 00:18:41;;;;;;;;;;;;;;;19.19;69.30;100758.40;107405;1256;97896;-66
2023/06/26 00:21:09;;;;;;;;;;;;;;;19.14;69.43;100754.95;107539;1251;98149;-67
2023/06/26 00:23:37;;;;;;;;;;;;;;;19.05;69.92;100751.98;107442;1254;113998;-67
2023/06/26 00:26:09;;;;;;;;;;;;;;;19.01;70.08;100752.70;107433;1254;110220;-65
2023/06/26 00:28:37;;;;;;;;;;;;;;;18.93;70.31;100749.30;107458;1254;107836;-66
2023/06/26 00:31:05;;;;;;;;;;;;;;;18.91;70.25;100746.38;107420;1256;97898;-68
2023/06/26 00:33:33;;;;;;;;;;;;;;;18.92;70.09;100749.23;107463;1254;97816;-66
2023/06/26 00:36:01;;;;;;;;;;;;;;;18.95;70.45;100752.35;107429;1251;111568;-66
2023/06/26 00:38:31;;;;;;;;;;;;;;;18.97;70.32;100747.33;107443;1254;109395;-66
2023/06/26 00:40:59;;;;;;;;;;;;;;;18.99;70.45;100748.75;107514;1253;107715;-67
2023/06/26 00:43:27;;;;;;;;;;;;;;;18.95;70.66;100742.54;107622;1256;97832;-66
2023/06/26 00:45:56;;;;;;;;;;;;;;;18.85;71.05;100740.59;107479;1251;97894;-66
2023/06/26 00:48:24;;;;;;;;;;;;;;;18.77;71.66;100740.70;107457;1254;112087;-65
2023/06/26 00:50:52;;;;;;;;;;;;;;;18.67;72.22;100739.99;107405;1254;109904;-68
2023/06/26 00:53:21;;;;;;;;;;;;;;;18.58;72.71;100738.30;107409;1251;108349;-66
2023/06/26 00:55:50;;;;;;;;;;;;;;;18.51;72.75;100741.15;107471;1251;97985;-66
2023/06/26 00:58:18;;;;;;;;;;;;;;;18.51;72.73;100737.74;107489;1252;97813;-66
2023/06/26 01:00:46;;;;;;;;;;;;;;;18.54;72.30;100737.31;107542;1251;111237;-66
2023/06/26 01:03:15;;;;;;;;;;;;;;;18.61;72.24;100733.18;107556;1251;108693;-65
2023/06/26 01:05:49;;;;;;;;;;;;;;;18.67;72.01;100737.70;107454;1257;108256;-66
2023/06/26 01:08:19;;;;;;;;;;;;;;;18.71;72.03;100732.95;107546;1254;97946;-66
2023/06/26 01:10:48;;;;;;;;;;;;;;;18.72;72.07;100731.10;107570;1254;97719;-68
2023/06/26 01:13:16;;;;;;;;;;;;;;;18.67;71.73;100728.17;107587;1251;111157;-71
2023/06/26 01:15:44;;;;;;;;;;;;;;;18.61;71.89;100726.98;107487;1251;109304;-67
2023/06/26 01:18:15;;;;;;;;;;;;;;;18.58;72.46;100728.29;107481;1251;109502;-66
2023/06/26 01:20:44;;;;;;;;;;;;;;;18.52;72.61;100720.56;107473;1256;97841;-65
2023/06/26 01:23:17;;;;;;;;;;;;;;;18.42;73.00;100721.33;107473;1251;97715;-66
2023/06/26 01:25:45;;;;;;;;;;;;;;;18.31;73.65;100722.48;107423;1251;111543;-66
2023/06/26 01:28:14;;;;;;;;;;;;;;;18.25;74.02;100722.77;107441;1254;109214;-66
2023/06/26 01:30:43;;;;;;;;;;;;;;;18.19;74.24;100722.52;107427;1256;107086;-67
2023/06/26 01:33:12;;;;;;;;;;;;;;;18.12;74.63;100723.56;107524;1254;97662;-65
2023/06/26 01:35:41;;;;;;;;;;;;;;;18.09;74.00;100724.85;107603;1251;97713;-66
2023/06/26 01:38:14;;;;;;;;;;;;;;;18.13;74.41;100723.65;107552;1251;111387;-67
2023/06/26 01:40:43;;;;;;;;;;;;;;;18.16;74.18;100721.81;107462;1254;109397;-65
2023/06/26 01:43:32;;;;;;;;;;;;;;;18.19;75.15;100722.05;107516;1256;107576;-66
2023/06/26 01:46:17;;;;;;;;;;;;;;;18.12;75.35;100721.23;107296;1254;97856;-67
2023/06/26 01:48:59;;;;;;;;;;;;;;;18.03;75.68;100720.36;107590;1254;97867;-65
2023/06/26 01:51:30;;;;;;;;;;;;;;;17.93;76.53;100718.42;107504;1256;112338;-66
2023/06/26 01:53:59;;;;;;;;;;;;;;;17.85;76.73;100716.66;107553;1254;110055;-65
2023/06/26 01:56:29;;;;;;;;;;;;;;;17.78;77.40;100714.27;107468;1251;108669;-66
2023/06/26 01:58:57;;;;;;;;;;;;;;;17.72;77.57;100710.44;107493;1255;97901;-67
2023/06/26 02:01:26;;;;;;;;;;;;;;;17.65;77.69;100708.45;107543;1251;97755;-68
2023/06/26 02:03:54;;;;;;;;;;;;;;;17.60;78.47;100705.34;107542;1253;111737;-66
2023/06/26 02:06:24;;;;;;;;;;;;;;;17.51;79.02;100708.02;107588;1256;110000;-65
2023/06/26 02:08:52;;;;;;;;;;;;;;;17.42;79.62;100705.94;107512;1257;108310;-67
2023/06/26 02:11:20;;;;;;;;;;;;;;;17.33;80.46;100710.64;107491;1254;97825;-66
2023/06/26 02:13:48;;;;;;;;;;;;;;;17.25;80.86;100703.88;107533;1251;97893;-67
2023/06/26 02:16:16;;;;;;;;;;;;;;;17.18;81.18;100707.48;107457;1251;112025;-66
2023/06/26 02:18:44;;;;;;;;;;;;;;;17.15;81.79;100710.04;107601;1256;109673;-66
2023/06/26 02:21:13;;;;;;;;;;;;;;;17.10;81.98;100710.43;107493;1251;108651;-66
2023/06/26 02:23:42;;;;;;;;;;;;;;;17.06;82.35;100707.89;107526;1251;99298;-65
2023/06/26 02:26:11;;;;;;;;;;;;;;;17.00;82.64;100710.40;107537;1253;97847;-66
2023/06/26 02:28:39;;;;;;;;;;;;;;;16.94;82.86;100711.18;107589;1253;112231;-67
2023/06/26 02:31:07;;;;;;;;;;;;;;;16.92;83.10;100713.41;107605;1253;109066;-69
2023/06/26 02:33:35;;;;;;;;;;;;;;;16.92;83.39;100715.78;107503;1253;108575;-66
2023/06/26 02:36:03;;;;;;;;;;;;;;;16.92;83.15;100712.54;107463;1256;97857;-66
2023/06/26 02:38:33;;;;;;;;;;;;;;;16.96;82.58;100708.63;107528;1251;97719;-69
2023/06/26 02:41:02;;;;;;;;;;;;;;;17.01;82.30;100709.17;107493;1250;111472;-65
2023/06/26 02:43:31;;;;;;;;;;;;;;;17.06;81.88;100712.20;107423;1251;110178;-65
2023/06/26 02:45:59;;;;;;;;;;;;;;;17.10;82.64;100712.11;107464;1254;108151;-66
2023/06/26 02:48:28;;;;;;;;;;;;;;;17.07;82.42;100709.72;107470;1251;97818;-67
2023/06/26 02:50:56;;;;;;;;;;;;;;;17.06;82.65;100709.86;107493;1251;97771;-65
2023/06/26 02:53:29;;;;;;;;;;;;;;;17.03;83.39;100707.80;107441;1251;112708;-66
2023/06/26 02:55:57;;;;;;;;;;;;;;;17.01;83.09;100705.11;107539;1251;109485;-66
2023/06/26 02:58:25;;;;;;;;;;;;;;;17.01;83.51;100707.20;107517;1257;108162;-65
2023/06/26 03:00:53;;;;;;;;;;;;;;;16.97;83.90;100709.44;107435;1251;97785;-66
2023/06/26 03:03:23;;;;;;;;;;;;;;;16.95;84.16;100710.77;107459;1251;97908;-65
2023/06/26 03:05:51;;;;;;;;;;;;;;;16.91;84.50;100705.91;107462;1254;111258;-65
2023/06/26 03:08:19;;;;;;;;;;;;;;;16.89;84.47;100710.61;107547;1254;108516;-67
2023/06/26 03:10:48;;;;;;;;;;;;;;;16.88;84.87;100717.86;107533;1251;108498;-66
2023/06/26 03:13:16;;;;;;;;;;;;;;;16.86;84.75;100715.52;107515;1255;97931;-66
2023/06/26 03:15:45;;;;;;;;;;;;;;;16.88;84.74;100718.91;107546;1256;97810;-67
2023/06/26 03:18:13;;;;;;;;;;;;;;;16.88;85.11;100717.70;107531;1251;110881;-67
2023/06/26 03:20:42;;;;;;;;;;;;;;;16.88;85.02;100719.27;107447;1251;109663;-66
2023/06/26 03:23:10;;;;;;;;;;;;;;;16.88;85.12;100714.90;107442;1254;107285;-65
2023/06/26 03:25:38;;;;;;;;;;;;;;;16.89;85.09;100717.72;107487;1251;97976;-68
2023/06/26 03:28:25;;;;;;;;;;;;;;;16.91;85.18;100711.67;107500;1251;97898;-66
2023/06/26 03:30:53;;;;;;;;;;;;;;;16.96;84.58;100711.39;107557;1251;111905;-65
2023/06/26 03:33:22;;;;;;;;;;;;;;;17.01;84.48;100715.08;107537;1251;109741;-68
2023/06/26 03:35:50;;;;;;;;;;;;;;;17.07;84.29;100711.33;107481;1251;108382;-66
2023/06/26 03:38:19;;;;;;;;;;;;;;;17.10;84.22;100714.03;107426;1251;97824;-66
2023/06/26 03:40:47;;;;;;;;;;;;;;;17.11;84.36;100715.02;107447;1251;97806;-66
2023/06/26 03:43:16;;;;;;;;;;;;;;;17.13;84.39;100714.70;107492;1250;111395;-67
2023/06/26 03:45:59;;;;;;;;;;;;;;;17.12;84.43;100714.20;107406;1254;109739;-67
2023/06/26 03:48:28;;;;;;;;;;;;;;;17.14;84.46;100714.38;107521;1254;107756;-66
2023/06/26 03:50:57;;;;;;;;;;;;;;;17.17;84.01;100706.72;107417;1251;97806;-67
2023/06/26 03:53:25;;;;;;;;;;;;;;;17.23;83.93;100706.48;107407;1251;97704;-66
2023/06/26 03:55:54;;;;;;;;;;;;;;;17.25;83.77;100708.33;107437;1250;111862;-66
2023/06/26 03:58:24;;;;;;;;;;;;;;;17.25;83.85;100710.50;107462;1251;108830;-67
2023/06/26 04:00:53;;;;;;;;;;;;;;;17.28;83.68;100711.05;107467;1254;107786;-65
2023/06/26 04:03:21;;;;;;;;;;;;;;;17.32;83.53;100714.72;107545;1252;97765;-66
2023/06/26 04:05:50;;;;;;;;;;;;;;;17.35;83.62;100714.09;107439;1253;97905;-69
2023/06/26 04:08:20;;;;;;;;;;;;;;;17.35;83.33;100712.75;107525;1256;112154;-66
2023/06/26 04:10:48;;;;;;;;;;;;;;;17.39;83.11;100709.06;107394;1254;109276;-67
2023/06/26 04:13:16;;;;;;;;;;;;;;;17.45;82.98;100710.38;107508;1254;107442;-65
2023/06/26 04:15:45;;;;;;;;;;;;;;;17.51;82.86;100707.46;107573;1254;97829;-66
2023/06/26 04:18:13;;;;;;;;;;;;;;;17.57;82.67;100705.67;107423;1251;97832;-66
2023/06/26 04:21:01;;;;;;;;;;;;;;;17.62;82.29;100707.64;107412;1251;111386;-66
2023/06/26 04:23:39;;;;;;;;;;;;;;;17.65;82.07;100707.73;107426;1251;109390;-66
2023/06/26 04:26:08;;;;;;;;;;;;;;;17.72;81.87;100712.45;107388;1254;109240;-66
2023/06/26 04:28:36;;;;;;;;;;;;;;;17.77;81.55;100706.51;107502;1254;97851;-67
2023/06/26 04:31:04;;;;;;;;;;;;;;;17.87;81.48;100713.35;107579;1251;97764;-66
2023/06/26 04:33:33;;;;;;;;;;;;;;;17.99;81.35;100711.30;107549;1254;112220;-66
2023/06/26 04:36:03;;;;;;;;;;;;;;;18.10;80.91;100716.20;107479;1251;108637;-66
2023/06/26 04:38:33;;;;;;;;;;;;;;;18.21;80.67;100721.72;107536;1251;108384;-68
2023/06/26 04:41:01;;;;;;;;;;;;;;;18.29;80.11;100712.60;107561;1251;98015;-65
2023/06/26 04:43:30;;;;;;;;;;;;;;;18.38;79.69;100712.64;107443;1251;97844;-69
2023/06/26 04:45:58;;;;;;;;;;;;;;;18.47;79.50;100713.30;107387;1251;112261;-67
2023/06/26 04:48:27;;;;;;;;;;;;;;;18.50;78.46;100715.14;107474;1251;109473;-66
2023/06/26 04:50:55;;;;;;;;;;;;;;;18.56;78.37;100712.63;107524;1251;108635;-65
2023/06/26 04:53:24;;;;;;;;;;;;;;;18.63;77.91;100715.17;107486;1251;97809;-65
2023/06/26 04:55:53;;;;;;;;;;;;;;;18.68;77.52;100709.88;107447;1251;97723;-65
2023/06/26 04:58:21;;;;;;;;;;;;;;;18.80;77.55;100707.66;107612;1253;111475;-69
2023/06/26 05:00:49;;;;;;;;;;;;;;;18.97;77.11;100704.57;107555;1251;108946;-66
2023/06/26 05:03:18;;;;;;;;;;;;;;;19.13;76.53;100704.57;107432;1251;108115;-66
2023/06/26 05:05:46;;;;;;;;;;;;;;;19.26;76.44;100703.30;107585;1251;97694;-66
2023/06/26 05:08:15;;;;;;;;;;;;;;;19.36;76.10;100704.64;107589;1251;97750;-65
2023/06/26 05:10:44;;;;;;;;;;;;;;;19.43;75.52;100708.36;107514;1251;111175;-65
2023/06/26 05:13:15;;;;;;;;;;;;;;;19.46;75.52;100710.95;107457;1251;111054;-68
2023/06/26 05:15:46;;;;;;;;;;;;;;;19.52;75.23;100717.71;107474;1250;108260;-67
2023/06/26 05:18:15;;;;;;;;;;;;;;;19.61;75.39;100717.50;107480;1251;97815;-67
2023/06/26 05:20:44;;;;;;;;;;;;;;;19.76;74.78;100717.06;107455;1251;97850;-66
2023/06/26 05:23:12;;;;;;;;;;;;;;;19.89;74.68;100720.08;107543;1251;111374;-66
2023/06/26 05:25:41;;;;;;;;;;;;;;;20.04;73.34;100717.46;107470;1251;109774;-66
2023/06/26 05:28:12;;;;;;;;;;;;;;;20.16;71.70;100718.04;107511;1251;108314;-67
2023/06/26 05:30:40;;;;;;;;;;;;;;;20.25;71.69;100722.16;107513;1255;97933;-69
2023/06/26 05:33:11;;;;;;;;;;;;;;;20.36;71.23;100722.64;107604;1251;97906;-67
2023/06/26 05:35:39;;;;;;;;;;;;;;;20.40;70.88;100720.73;107447;1251;111473;-66
2023/06/26 05:38:08;;;;;;;;;;;;;;;20.43;70.88;100727.43;107658;1254;108189;-65
2023/06/26 05:40:36;;;;;;;;;;;;;;;20.41;70.33;100730.70;107535;1251;107412;-66
2023/06/26 05:43:05;;;;;;;;;;;;;;;20.32;70.31;100723.25;107530;1254;97989;-69
2023/06/26 05:45:34;;;;;;;;;;;;;;;20.30;70.46;100720.82;107593;1251;97843;-66
2023/06/26 05:48:02;;;;;;;;;;;;;;;20.34;70.81;100721.95;107599;1251;111344;-67
2023/06/26 05:50:31;;;;;;;;;;;;;;;20.45;70.73;100720.88;107518;1251;109064;-66
2023/06/26 05:53:02;;;;;;;;;;;;;;;20.57;70.38;100714.16;107438;1251;107847;-66
2023/06/26 05:55:31;;;;;;;;;;;;;;;20.70;70.52;100716.52;107427;1251;97825;-66
2023/06/26 05:57:59;;;;;;;;;;;;;;;20.87;70.16;100717.83;107531;1254;98614;-66
2023/06/26 06:00:29;;;;;;;;;;;;;;;21.03;69.02;100710.80;107595;1254;112220;-66
2023/06/26 06:02:57;;;;;;;;;;;;;;;21.18;68.90;100713.61;107450;1251;109756;-64
2023/06/26 06:05:26;;;;;;;;;;;;;;;21.37;68.43;100711.39;107395;1251;108076;-66
2023/06/26 06:07:54;;;;;;;;;;;;;;;21.59;67.77;100710.84;107516;1254;97966;-65
2023/06/26 06:10:22;;;;;;;;;;;;;;;21.80;67.15;100711.50;107599;1252;97723;-69
2023/06/26 06:12:52;;;;;;;;;;;;;;;21.99;64.53;100710.27;107540;1254;112288;-65
2023/06/26 06:15:20;;;;;;;;;;;;;;;22.00;64.64;100712.83;107559;1251;110483;-66
2023/06/26 06:17:49;;;;;;;;;;;;;;;22.00;64.57;100714.67;107499;1251;106926;-65
2023/06/26 06:20:21;;;;;;;;;;;;;;;22.01;64.33;100712.94;107445;1251;97908;-67
2023/06/26 06:22:49;;;;;;;;;;;;;;;22.03;63.76;100721.05;107455;1251;99390;-68
2023/06/26 06:25:17;;;;;;;;;;;;;;;22.00;64.30;100719.45;107401;1251;111231;-67
2023/06/26 06:27:46;;;;;;;;;;;;;;;21.96;63.46;100720.96;107531;1251;109458;-65
2023/06/26 06:30:14;;;;;;;;;;;;;;;21.85;64.14;100722.80;107531;1251;108294;-65
2023/06/26 06:32:42;;;;;;;;;;;;;;;21.85;64.53;100723.84;107544;1254;97864;-65
2023/06/26 06:35:11;;;;;;;;;;;;;;;21.87;64.77;100725.19;107541;1253;97825;-66
2023/06/26 06:37:39;;;;;;;;;;;;;;;21.94;64.62;100720.42;107483;1251;111994;-67
2023/06/26 06:40:11;;;;;;;;;;;;;;;22.00;64.63;100718.80;107552;1251;109938;-66
2023/06/26 06:42:42;;;;;;;;;;;;;;;22.04;64.64;100724.39;107498;1251;107681;-66
2023/06/26 06:45:15;;;;;;;;;;;;;;;22.09;64.15;100727.73;107534;1251;97821;-65
2023/06/26 06:47:43;;;;;;;;;;;;;;;22.13;63.64;100725.44;107511;1251;97659;-66
2023/06/26 06:50:11;;;;;;;;;;;;;;;22.17;63.31;100725.64;107496;1251;111006;-69
2023/06/26 06:52:42;;;;;;;;;;;;;;;22.21;63.56;100725.09;107414;1250;109601;-65
2023/06/26 06:55:11;;;;;;;;;;;;;;;22.25;62.83;100725.75;107489;1251;108211;-66
2023/06/26 06:57:39;;;;;;;;;;;;;;;22.29;63.59;100723.89;107392;1251;97834;-66
2023/06/26 07:00:09;;;;;;;;;;;;;;;22.44;63.61;100730.30;107610;1251;97753;-67
2023/06/26 07:02:38;;;;;;;;;;;;;;;22.59;63.54;100729.27;107543;1254;110499;-67
2023/06/26 07:05:06;;;;;;;;;;;;;;;22.73;63.10;100732.69;107539;1251;110003;-67
2023/06/26 07:07:36;;;;;;;;;;;;;;;22.84;62.79;100726.22;107404;1254;107833;-66
2023/06/26 07:10:09;;;;;;;;;;;;;;;22.90;62.17;100727.37;107426;1250;97691;-67
2023/06/26 07:12:37;;;;;;;;;;;;;;;22.95;61.21;100731.14;107456;1251;97825;-66
2023/06/26 07:15:06;;;;;;;;;;;;;;;23.03;61.39;100731.90;107567;1252;111514;-67
2023/06/26 07:17:35;;;;;;;;;;;;;;;23.15;60.93;100731.54;107556;1251;109231;-67
2023/06/26 07:20:06;;;;;;;;;;;;;;;23.28;61.17;100730.26;107561;1255;107349;-66
2023/06/26 07:22:36;;;;;;;;;;;;;;;23.47;60.97;100729.14;107571;1251;97851;-66
2023/06/26 07:25:08;;;;;;;;;;;;;;;23.67;59.68;100729.02;107578;1251;97701;-66
2023/06/26 07:27:38;;;;;;;;;;;;;;;23.79;58.26;100729.30;107590;1251;112331;-65
2023/06/26 07:30:10;;;;;;;;;;;;;;;23.87;58.41;100729.73;107596;1251;110216;-65
2023/06/26 07:32:38;;;;;;;;;;;;;;;24.01;59.10;100729.45;107444;1254;108533;-66
2023/06/26 07:35:06;;;;;;;;;;;;;;;24.15;58.02;100731.67;107455;1254;97897;-66
2023/06/26 07:37:35;;;;;;;;;;;;;;;24.31;57.40;100734.80;107498;1250;97831;-66
2023/06/26 07:40:04;;;;;;;;;;;;;;;24.34;56.74;100735.27;107488;1251;110399;-68
2023/06/26 07:42:32;;;;;;;;;;;;;;;24.27;56.00;100727.46;107436;1251;109467;-67
2023/06/26 07:45:10;;;;;;;;;;;;;;;24.13;56.03;100724.89;107511;1254;108151;-67
2023/06/26 07:47:39;;;;;;;;;;;;;;;24.07;56.38;100726.83;107575;1251;97907;-68
2023/06/26 07:50:08;;;;;;;;;;;;;;;24.07;56.00;100722.42;107546;1251;98295;-67
2023/06/26 07:52:37;;;;;;;;;;;;;;;24.09;53.36;100717.36;107586;1251;110921;-65
2023/06/26 07:55:06;;;;;;;;;;;;;;;24.05;53.59;100715.55;107538;1251;109848;-66
2023/06/26 07:57:34;;;;;;;;;;;;;;;23.99;53.57;100720.73;107545;1251;106991;-67
2023/06/26 08:00:03;;;;;;;;;;;;;;;23.95;52.46;100723.17;107454;1251;97844;-66
2023/06/26 08:02:41;;;;;;;;;;;;;;;23.93;53.47;100721.73;106659;1250;1128226;-67
2023/06/26 08:05:10;;;;;;;;;;;;;;;23.99;53.56;100721.02;107512;1251;111241;-67
2023/06/26 08:07:39;;;;;;;;;;;;;;;24.03;53.95;100713.66;107596;1250;108764;-67
2023/06/26 08:10:07;;;;;;;;;;;;;;;24.11;53.23;100711.38;107439;1251;107814;-66
2023/06/26 08:12:40;;;;;;;;;;;;;;;24.17;52.75;100712.98;107430;1251;97717;-68
2023/06/26 08:15:09;;;;;;;;;;;;;;;24.17;52.68;100715.59;107559;1254;97815;-66
2023/06/26 08:17:37;;;;;;;;;;;;;;;24.18;52.16;100708.64;107566;1251;112095;-67
2023/06/26 08:20:07;;;;;;;;;;;;;;;24.15;51.64;100710.08;107480;1251;109638;-67
2023/06/26 08:22:36;;;;;;;;;;;;;;;24.25;51.93;100704.21;107438;1254;107714;-66
2023/06/26 08:25:05;;;;;;;;;;;;;;;24.46;51.34;100708.88;107508;1251;97832;-66
2023/06/26 08:27:33;;;;;;;;;;;;;;;24.63;50.89;100706.21;107475;1254;97800;-67
2023/06/26 08:30:01;;;;;;;;;;;;;;;24.76;50.23;100700.02;107525;1251;112103;-68
2023/06/26 08:32:30;;;;;;;;;;;;;;;24.85;50.27;100702.37;107626;1255;109837;-68
2023/06/26 08:34:58;;;;;;;;;;;;;;;24.93;50.14;100707.83;107446;1251;108751;-68
2023/06/26 08:37:26;;;;;;;;;;;;;;;24.99;49.84;100705.65;107418;1251;97781;-67
2023/06/26 08:39:55;;;;;;;;;;;;;;;25.07;48.82;100706.09;107474;1251;97808;-70
2023/06/26 08:42:23;;;;;;;;;;;;;;;25.11;47.97;100706.96;107476;1251;111168;-67
2023/06/26 08:44:52;;;;;;;;;;;;;;;25.12;48.32;100704.29;107586;1251;109085;-71
2023/06/26 08:47:29;;;;;;;;;;;;;;;25.24;47.53;100699.27;107702;1251;108614;-65
2023/06/26 08:50:08;;;;;;;;;;;;;;;25.37;47.03;100696.11;107445;1254;98508;-68
2023/06/26 08:52:43;;;;;;;;;;;;;;;25.50;45.98;100695.79;107543;1250;97790;-68
2023/06/26 08:55:12;;;;;;;;;;;;;;;25.66;44.15;100698.77;107533;1253;112187;-68
2023/06/26 08:57:40;;;;;;;;;;;;;;;25.84;44.99;100696.60;107603;1251;109986;-67
2023/06/26 09:00:09;;;;;;;;;;;;;;;26.03;44.36;100694.84;107436;1251;107638;-66
2023/06/26 09:02:38;;;;;;;;;;;;;;;26.20;43.00;100690.27;107480;1251;97906;-68
2023/06/26 09:05:07;;;;;;;;;;;;;;;26.23;42.25;100689.61;107501;1251;97690;-67
2023/06/26 09:07:35;;;;;;;;;;;;;;;26.34;41.65;100691.17;107631;1251;110893;-68
2023/06/26 09:10:07;;;;;;;;;;;;;;;26.41;41.17;100690.21;107533;1251;109750;-66
2023/06/26 09:12:36;;;;;;;;;;;;;;;26.54;40.70;100686.89;107391;1250;108687;-66
2023/06/26 09:15:05;;;;;;;;;;;;;;;26.68;40.68;100689.32;107448;1250;97819;-66
2023/06/26 09:17:42;;;;;;;;;;;;;;;26.86;39.58;100687.64;107570;1251;97820;-66
2023/06/26 09:20:10;;;;;;;;;;;;;;;26.92;39.75;100685.42;107567;1251;110295;-67
2023/06/26 09:22:40;;;;;;;;;;;;;;;27.04;38.70;100687.47;107512;1254;110114;-66
2023/06/26 09:25:09;;;;;;;;;;;;;;;27.21;38.75;100684.56;107617;1251;108388;-67
2023/06/26 09:27:38;;;;;;;;;;;;;;;27.43;37.93;100680.42;107549;1256;97689;-65
2023/06/26 09:30:07;;;;;;;;;;;;;;;27.63;36.84;100676.70;107449;1251;97720;-66
2023/06/26 09:32:38;;;;;;;;;;;;;;;27.82;36.61;100677.64;107480;1254;112652;-66
2023/06/26 09:35:07;;;;;;;;;;;;;;;28.05;36.02;100673.67;107419;1251;109532;-67
2023/06/26 09:37:36;;;;;;;;;;;;;;;28.28;35.62;100673.55;107445;1251;108185;-66
2023/06/26 09:40:04;;;;;;;;;;;;;;;28.54;34.45;100672.91;107469;1251;97824;-67
2023/06/26 09:42:33;;;;;;;;;;;;;;;28.76;34.45;100670.51;107601;1251;97813;-67
2023/06/26 09:45:02;;;;;;;;;;;;;;;28.96;33.17;100659.75;107539;1251;111634;-67
2023/06/26 09:47:33;;;;;;;;;;;;;;;29.20;32.67;100660.24;107519;1251;109769;-67
2023/06/26 09:50:05;;;;;;;;;;;;;;;29.45;33.02;100661.20;107531;1254;107881;-67
2023/06/26 09:52:34;;;;;;;;;;;;;;;29.76;32.41;100658.52;107543;1251;97819;-66
2023/06/26 09:55:12;;;;;;;;;;;;;;;30.07;31.75;100657.10;107443;1254;97695;-67
2023/06/26 09:57:42;;;;;;;;;;;;;;;30.41;30.37;100650.58;107436;1251;111197;-68
2023/06/26 10:00:14;;;;;;;;;;;;;;;30.53;29.92;100655.12;107572;1253;109701;-68
2023/06/26 10:02:42;;;;;;;;;;;;;;;30.79;30.30;100654.80;107608;1254;107250;-68
2023/06/26 10:05:11;;;;;;;;;;;;;;;31.15;28.93;100651.36;107519;1251;97883;-67
2023/06/26 10:07:40;;;;;;;;;;;;;;;31.43;28.49;100650.73;107462;1254;97794;-68
2023/06/26 10:10:10;;;;;;;;;;;;;;;31.62;27.82;100647.21;107539;1254;112067;-66
2023/06/26 10:12:38;;;;;;;;;;;;;;;31.75;26.97;100645.10;107574;1256;110054;-67
2023/06/26 10:15:12;;;;;;;;;;;;;;;31.80;27.62;100644.36;107539;1251;108457;-66
2023/06/26 10:17:42;;;;;;;;;;;;;;;31.93;27.40;100644.27;107506;1251;97854;-66
2023/06/26 10:20:10;;;;;;;;;;;;;;;32.27;27.75;100640.20;107551;1252;97820;-67
2023/06/26 10:22:44;;;;;;;;;;;;;;;32.43;27.94;100642.84;107578;1251;112526;-66
2023/06/26 10:25:16;;;;;;;;;;;;;;;32.93;26.22;100642.49;107496;1251;109919;-65
2023/06/26 10:27:46;;;;;;;;;;;;;;;33.45;25.49;100639.23;107446;1251;108397;-66
2023/06/26 10:30:17;;;;;;;;;;;;;;;33.46;26.80;100640.17;107420;1251;97812;-67
2023/06/26 10:32:47;;;;;;;;;;;;;;;32.93;27.31;100637.65;107483;1251;97775;-67
2023/06/26 10:35:16;;;;;;;;;;;;;;;32.65;27.06;100633.98;107487;1251;111779;-66
2023/06/26 10:37:50;;;;;;;;;;;;;;;33.16;26.68;100635.02;107475;1254;109633;-66
2023/06/26 10:40:25;;;;;;;;;;;;;;;33.12;26.73;100633.61;107543;1254;107767;-65
2023/06/26 10:43:07;;;;;;;;;;;;;;;32.65;26.43;100629.13;107548;1251;97730;-70
2023/06/26 10:45:36;;;;;;;;;;;;;;;33.07;26.90;100623.63;107585;1252;97845;-66
2023/06/26 10:48:05;;;;;;;;;;;;;;;33.85;24.90;100615.22;107550;1251;111804;-64
2023/06/26 10:50:35;;;;;;;;;;;;;;;34.47;24.20;100615.66;107516;1251;109276;-65
2023/06/26 10:53:19;;;;;;;;;;;;;;;35.10;25.17;100614.30;107471;1251;108117;-65
2023/06/26 10:55:50;;;;;;;;;;;;;;;35.77;24.20;100618.42;107545;1250;97913;-65
2023/06/26 10:58:39;;;;;;;;;;;;;;;35.95;22.76;100613.13;107609;1250;97697;-68
2023/06/26 11:01:10;;;;;;;;;;;;;;;35.66;23.80;100610.23;107579;1251;113257;-66
2023/06/26 11:03:40;;;;;;;;;;;;;;;35.18;24.08;100615.23;107589;1251;110540;-66
2023/06/26 11:06:09;;;;;;;;;;;;;;;35.24;23.68;100613.96;107536;1251;108615;-68
2023/06/26 11:08:45;;;;;;;;;;;;;;;35.62;22.83;100611.43;107518;1253;97864;-67
2023/06/26 11:11:14;;;;;;;;;;;;;;;36.12;23.12;100619.06;107539;1251;97819;-67
2023/06/26 11:13:45;;;;;;;;;;;;;;;36.63;23.00;100620.96;107596;1251;111413;-68
2023/06/26 11:16:14;;;;;;;;;;;;;;;37.10;21.41;100617.98;107519;1251;109589;-73
2023/06/26 11:18:42;;;;;;;;;;;;;;;37.27;20.59;100612.96;107563;1250;108397;-68
2023/06/26 11:21:14;;;;;;;;;;;;;;;37.49;20.97;100611.41;107570;1251;97861;-68
2023/06/26 11:23:45;;;;;;;;;;;;;;;38.06;21.03;100600.77;107615;1251;97717;-67
2023/06/26 11:26:17;;;;;;;;;;;;;;;38.69;20.71;100598.98;107560;1253;111974;-67
2023/06/26 11:28:46;;;;;;;;;;;;;;;39.13;18.26;100596.20;107519;1254;109529;-67
2023/06/26 11:31:24;;;;;;;;;;;;;;;39.07;17.65;100591.73;107530;1254;108093;-67
2023/06/26 11:33:54;;;;;;;;;;;;;;;38.88;19.44;100595.13;107589;1251;97819;-66
2023/06/26 11:36:26;;;;;;;;;;;;;;;39.20;19.24;100595.20;107508;1251;98021;-67
2023/06/26 11:38:59;;;;;;;;;;;;;;;39.48;18.70;100590.71;107595;1251;112205;-67
2023/06/26 11:41:31;;;;;;;;;;;;;;;39.66;18.05;100586.34;107557;1251;109680;-67
2023/06/26 11:44:03;;;;;;;;;;;;;;;39.95;18.23;100580.71;107473;1254;107521;-69
2023/06/26 11:46:33;;;;;;;;;;;;;;;39.57;17.71;100582.46;107571;1252;98091;-69
2023/06/26 11:49:05;;;;;;;;;;;;;;;37.96;19.31;100589.88;107594;1251;97839;-68
2023/06/26 11:51:35;;;;;;;;;;;;;;;37.10;20.43;100594.95;107534;1251;112836;-67
2023/06/26 11:54:05;;;;;;;;;;;;;;;37.67;20.76;100585.27;107555;1251;110017;-67
2023/06/26 11:56:34;;;;;;;;;;;;;;;38.35;19.71;100580.40;107476;1253;108418;-68
2023/06/26 11:59:09;;;;;;;;;;;;;;;38.12;19.33;100583.63;107455;1255;97841;-67
2023/06/26 12:01:40;;;;;;;;;;;;;;;37.47;19.43;100579.47;107568;1251;97738;-67
2023/06/26 12:04:09;;;;;;;;;;;;;;;36.44;20.86;100580.42;107564;1254;111856;-67
2023/06/26 12:06:39;;;;;;;;;;;;;;;36.87;19.86;100568.21;107572;1250;109131;-67
2023/06/26 12:09:10;;;;;;;;;;;;;;;37.36;19.55;100571.14;107532;1251;106831;-69
2023/06/26 12:11:41;;;;;;;;;;;;;;;37.70;19.31;100574.69;107561;1254;97812;-68
2023/06/26 12:14:09;;;;;;;;;;;;;;;37.18;19.57;100577.11;107565;1252;97726;-66
2023/06/26 12:16:39;;;;;;;;;;;;;;;36.12;19.71;100576.27;107519;1254;112170;-69
2023/06/26 12:19:07;;;;;;;;;;;;;;;35.76;20.32;100576.64;107548;1254;109191;-66
2023/06/26 12:21:35;;;;;;;;;;;;;;;35.53;21.19;100577.75;107560;1254;107296;-68
2023/06/26 12:24:05;;;;;;;;;;;;;;;35.52;21.30;100579.38;107486;1251;97805;-67
2023/06/26 12:26:33;;;;;;;;;;;;;;;36.35;20.57;100573.65;107548;1251;97797;-64
2023/06/26 12:29:06;;;;;;;;;;;;;;;37.04;19.87;100573.60;107531;1251;112255;-66
2023/06/26 12:31:35;;;;;;;;;;;;;;;37.94;18.52;100568.84;107568;1254;109400;-65
2023/06/26 12:34:08;;;;;;;;;;;;;;;37.64;18.49;100566.27;107550;1251;106966;-65